createdAt,value
2017-06-14T00:40:52.945Z,99.99
2017-06-14T01:00:52.916Z,99.99
2017-06-14T01:30:52.904Z,99.99
2017-06-14T01:50:52.909Z,99.99
2017-06-14T02:50:52.894Z,99.99
2017-06-14T03:40:58.287Z,99.99
2017-06-14T04:01:01.125Z,99.99
2017-06-14T04:11:00.683Z,99.99
2017-06-14T04:50:52.919Z,99.99
2017-06-14T05:21:00.521Z,99.99
2017-06-14T05:30:54.060Z,99.99
2017-06-14T05:51:00.688Z,96.22
2017-06-14T06:10:53.040Z,50.98
2017-06-14T06:20:52.967Z,46.33
2017-06-14T06:30:52.929Z,43.44
2017-06-14T06:40:52.991Z,38.45
2017-06-14T06:50:53.994Z,36.23
2017-06-14T07:00:53.025Z,33.34
2017-06-14T07:10:56.894Z,33.1
2017-06-14T07:20:54.798Z,33.98
2017-06-14T07:30:52.951Z,30.05
2017-06-14T07:40:52.964Z,31.29
2017-06-14T07:50:53.025Z,29.13
2017-06-14T08:00:52.992Z,28.96
2017-06-14T08:10:52.923Z,27.42
2017-06-14T08:20:52.931Z,27.49
2017-06-14T08:30:52.945Z,26.51
2017-06-14T08:40:52.929Z,26.05
2017-06-14T08:50:52.935Z,22.95
2017-06-14T09:00:52.975Z,24.44
2017-06-14T09:10:52.953Z,25.98
2017-06-14T09:20:52.962Z,36.32
2017-06-14T09:30:52.964Z,42.9
2017-06-14T09:40:52.973Z,46.51
2017-06-14T09:50:52.969Z,51.35
2017-06-14T10:00:52.973Z,51.59
2017-06-14T10:10:52.953Z,50.5
2017-06-14T10:20:52.954Z,52.75
2017-06-14T10:30:52.988Z,52.53
2017-06-14T10:40:52.962Z,53.61
2017-06-14T10:50:52.963Z,51.29
2017-06-14T11:00:53.094Z,52.55
2017-06-14T11:10:52.975Z,50.45
2017-06-14T11:20:52.959Z,51.23
2017-06-14T11:30:52.973Z,49.77
2017-06-14T11:40:52.975Z,48.52
2017-06-14T11:50:52.967Z,45.14
2017-06-14T12:00:52.972Z,47.19
2017-06-14T12:10:52.983Z,47.77
2017-06-14T12:20:53.002Z,49.34
2017-06-14T12:30:53.072Z,47.41
2017-06-14T12:40:52.992Z,46.05
2017-06-14T12:50:52.983Z,45.59
2017-06-14T13:00:52.976Z,45.3
2017-06-14T13:10:53.005Z,45.49
2017-06-14T13:20:53.092Z,47.81
2017-06-14T13:30:53.053Z,46.84
2017-06-14T13:40:56.175Z,44.33
2017-06-14T13:50:53.092Z,45.51
2017-06-14T14:00:53.018Z,47.16
2017-06-14T14:10:53.168Z,45.13
2017-06-14T14:20:53.037Z,44.27
2017-06-14T14:30:53.097Z,45.15
2017-06-14T14:40:53.068Z,42.14
2017-06-14T14:50:53.037Z,43.89
2017-06-14T15:00:53.021Z,44.76
2017-06-14T15:10:53.003Z,44.98
2017-06-14T15:20:53.020Z,45.75
2017-06-14T15:30:53.047Z,42.75
2017-06-14T15:40:53.049Z,42.54
2017-06-14T15:50:53.024Z,42.63
2017-06-14T16:00:53.020Z,43.02
2017-06-14T16:10:53.010Z,44.47
2017-06-14T16:20:53.020Z,43.5
2017-06-14T16:30:53.024Z,42.24
2017-06-14T16:40:53.014Z,43.41
2017-06-14T16:50:53.030Z,42.8
2017-06-14T17:00:53.066Z,43.29
2017-06-14T17:10:53.039Z,44.91
2017-06-14T17:20:53.021Z,43.55
2017-06-14T17:30:53.046Z,46.36
2017-06-14T17:40:53.030Z,47.6
2017-06-14T17:50:53.049Z,48.64
2017-06-14T18:00:53.056Z,47.96
2017-06-14T18:10:53.053Z,49.6
2017-06-14T18:20:53.142Z,52.39
2017-06-14T18:30:53.103Z,52.87
2017-06-14T18:40:53.058Z,54.65
2017-06-14T18:50:53.133Z,55.88
2017-06-14T19:00:53.058Z,58.36
2017-06-14T19:10:53.033Z,60.55
2017-06-14T19:20:53.046Z,60.8
2017-06-14T19:30:53.040Z,61.35
2017-06-14T19:40:53.148Z,65.17
2017-06-14T19:50:53.098Z,67.13
2017-06-14T20:00:53.222Z,69.31
2017-06-14T20:10:53.091Z,71
2017-06-14T20:20:53.190Z,72.02
2017-06-14T20:30:53.120Z,72.66
2017-06-14T20:40:53.068Z,73.43
2017-06-14T20:50:53.278Z,73.49
2017-06-14T21:00:53.110Z,74.64
2017-06-14T21:10:53.194Z,76.32
2017-06-14T21:20:53.123Z,78.2
2017-06-14T21:30:53.171Z,79.51
2017-06-14T21:40:53.162Z,81.62
2017-06-14T21:50:53.138Z,82.96
2017-06-14T22:00:53.114Z,85.21
2017-06-14T22:10:53.066Z,86.9
2017-06-14T22:20:53.155Z,88.13
2017-06-14T22:30:53.095Z,90.24
2017-06-14T22:40:53.209Z,92.44
2017-06-14T22:50:53.145Z,92.78
2017-06-14T23:00:53.084Z,94.5
2017-06-14T23:10:53.148Z,95.94
2017-06-14T23:20:53.097Z,98.28
2017-06-14T23:30:53.165Z,98.81
2017-06-14T23:40:53.145Z,99.99
2017-06-14T23:50:53.081Z,99.99
